Ballypatrick Forest, United Kingdom
Current Conditions -  °F | °C
As of 7:20 PM on Thursday 30 Oct 2014 (Local Time) from EGEC Reporting Station
Broken Clouds Broken Clouds  
Wind Chill: 57°   Ceiling: 300
Heat Index: 57°   Visibility: 5mi
Dew Point: 57°   Wind: 14mph
Humidity: 100%   Direction: 150°SSE
Pressure: 29.77"   Gusts: NA
Location:  55.18°N, 6.17°W
Report Text: EGEC 301920Z 15012KT 110V190 8000 BKN003 14/14 Q1008
Loading
Personal Weather Stations






























Interactive Weather Map
Tropical Storm Tracking
New forecast layout! Learn more

10-Day Weather Forecast

Advertisements
Track Severe Weather on mobile